sensor_id;sensor_type;location;lat;lon;timestamp;pressure;altitude;pressure_sealevel;temperature;humidity
12213;BME280;6169;44.158;22.788;2022-12-07T00:04:59;101239.44;;;9.26;66.83
12213;BME280;6169;44.158;22.788;2022-12-07T00:10:01;101228.41;;;9.34;66.62
12213;BME280;6169;44.158;22.788;2022-12-07T00:15:06;101220.03;;;9.22;67.63
12213;BME280;6169;44.158;22.788;2022-12-07T00:20:09;101218.38;;;9.34;66.30
12213;BME280;6169;44.158;22.788;2022-12-07T00:25:11;101236.53;;;9.27;67.78
12213;BME280;6169;44.158;22.788;2022-12-07T00:30:15;101232.75;;;9.21;67.37
12213;BME280;6169;44.158;22.788;2022-12-07T00:35:17;101239.84;;;9.16;68.21
12213;BME280;6169;44.158;22.788;2022-12-07T00:40:20;101240.06;;;9.21;67.44
12213;BME280;6169;44.158;22.788;2022-12-07T00:45:23;101236.47;;;9.20;67.34
12213;BME280;6169;44.158;22.788;2022-12-07T00:50:25;101221.28;;;9.19;67.73
12213;BME280;6169;44.158;22.788;2022-12-07T00:55:27;101210.06;;;9.36;67.39
12213;BME280;6169;44.158;22.788;2022-12-07T01:00:31;101200.69;;;9.38;67.02
12213;BME280;6169;44.158;22.788;2022-12-07T01:05:35;101200.88;;;9.17;67.11
12213;BME280;6169;44.158;22.788;2022-12-07T01:10:37;101203.16;;;9.13;66.92
12213;BME280;6169;44.158;22.788;2022-12-07T01:15:41;101200.03;;;9.03;67.47
12213;BME280;6169;44.158;22.788;2022-12-07T01:20:43;101201.91;;;9.16;67.04
12213;BME280;6169;44.158;22.788;2022-12-07T01:25:54;101215.22;;;9.17;67.15
12213;BME280;6169;44.158;22.788;2022-12-07T01:31:00;101204.84;;;9.08;68.41
12213;BME280;6169;44.158;22.788;2022-12-07T01:36:03;101190.06;;;9.30;67.61
12213;BME280;6169;44.158;22.788;2022-12-07T01:41:06;101189.00;;;9.11;67.89
12213;BME280;6169;44.158;22.788;2022-12-07T01:46:10;101191.94;;;9.30;66.81
12213;BME280;6169;44.158;22.788;2022-12-07T01:51:13;101182.13;;;9.22;66.04
12213;BME280;6169;44.158;22.788;2022-12-07T01:56:20;101180.66;;;9.19;66.67
12213;BME280;6169;44.158;22.788;2022-12-07T02:01:26;101166.09;;;9.34;66.41
12213;BME280;6169;44.158;22.788;2022-12-07T02:06:29;101161.69;;;9.19;66.74
12213;BME280;6169;44.158;22.788;2022-12-07T02:11:31;101164.84;;;9.30;67.55
12213;BME280;6169;44.158;22.788;2022-12-07T02:16:42;101168.56;;;9.22;67.09
12213;BME280;6169;44.158;22.788;2022-12-07T02:21:50;101164.03;;;9.09;68.30
12213;BME280;6169;44.158;22.788;2022-12-07T02:27:16;101165.03;;;9.21;67.28
12213;BME280;6169;44.158;22.788;2022-12-07T02:32:26;101163.38;;;9.34;67.59
12213;BME280;6169;44.158;22.788;2022-12-07T02:37:35;101153.16;;;9.36;67.31
12213;BME280;6169;44.158;22.788;2022-12-07T02:42:44;101145.66;;;9.24;67.72
12213;BME280;6169;44.158;22.788;2022-12-07T02:47:51;101140.25;;;9.18;67.55
12213;BME280;6169;44.158;22.788;2022-12-07T02:52:55;101136.09;;;9.15;68.72
12213;BME280;6169;44.158;22.788;2022-12-07T02:58:07;101126.06;;;9.22;67.53
12213;BME280;6169;44.158;22.788;2022-12-07T03:03:15;101110.28;;;8.99;67.69
12213;BME280;6169;44.158;22.788;2022-12-07T03:08:23;101097.75;;;9.18;67.83
12213;BME280;6169;44.158;22.788;2022-12-07T03:13:31;101114.41;;;9.22;67.06
12213;BME280;6169;44.158;22.788;2022-12-07T03:18:42;101111.09;;;9.27;67.76
12213;BME280;6169;44.158;22.788;2022-12-07T03:23:50;101110.25;;;9.33;67.57
12213;BME280;6169;44.158;22.788;2022-12-07T03:28:56;101104.00;;;9.12;68.28
12213;BME280;6169;44.158;22.788;2022-12-07T03:34:05;101104.81;;;9.19;68.05
12213;BME280;6169;44.158;22.788;2022-12-07T03:39:16;101113.59;;;9.01;67.70
12213;BME280;6169;44.158;22.788;2022-12-07T03:44:22;101132.34;;;9.03;68.32
12213;BME280;6169;44.158;22.788;2022-12-07T03:49:29;101129.44;;;9.18;66.73
12213;BME280;6169;44.158;22.788;2022-12-07T03:54:36;101137.34;;;8.93;66.80
12213;BME280;6169;44.158;22.788;2022-12-07T03:59:40;101131.72;;;9.28;64.92
12213;BME280;6169;44.158;22.788;2022-12-07T04:04:45;101126.50;;;8.86;67.75
12213;BME280;6169;44.158;22.788;2022-12-07T04:09:47;101145.25;;;9.14;66.55
12213;BME280;6169;44.158;22.788;2022-12-07T04:14:50;101135.25;;;9.35;65.59
12213;BME280;6169;44.158;22.788;2022-12-07T04:19:53;101106.09;;;9.23;65.92
12213;BME280;6169;44.158;22.788;2022-12-07T04:24:55;101082.16;;;9.07;66.87
12213;BME280;6169;44.158;22.788;2022-12-07T04:29:57;101091.09;;;9.28;66.57
12213;BME280;6169;44.158;22.788;2022-12-07T04:35:01;101097.16;;;9.10;67.68
12213;BME280;6169;44.158;22.788;2022-12-07T04:40:05;101106.31;;;9.15;66.79
12213;BME280;6169;44.158;22.788;2022-12-07T04:45:09;101102.75;;;9.21;66.85
12213;BME280;6169;44.158;22.788;2022-12-07T04:50:12;101086.31;;;9.30;67.34
12213;BME280;6169;44.158;22.788;2022-12-07T04:55:15;101097.50;;;9.40;66.92
12213;BME280;6169;44.158;22.788;2022-12-07T05:00:18;101085.38;;;9.56;65.68
12213;BME280;6169;44.158;22.788;2022-12-07T05:05:21;101096.47;;;9.41;65.68
12213;BME280;6169;44.158;22.788;2022-12-07T05:10:24;101101.47;;;9.37;65.87
12213;BME280;6169;44.158;22.788;2022-12-07T05:15:27;101089.31;;;9.60;65.06
12213;BME280;6169;44.158;22.788;2022-12-07T05:20:30;101079.69;;;9.71;63.53
12213;BME280;6169;44.158;22.788;2022-12-07T05:25:32;101087.25;;;9.49;63.81
12213;BME280;6169;44.158;22.788;2022-12-07T05:30:35;101095.91;;;9.12;65.26
12213;BME280;6169;44.158;22.788;2022-12-07T05:35:39;101089.41;;;9.33;66.05
12213;BME280;6169;44.158;22.788;2022-12-07T05:40:41;101106.94;;;9.11;66.23
12213;BME280;6169;44.158;22.788;2022-12-07T05:45:43;101079.44;;;9.00;65.84
12213;BME280;6169;44.158;22.788;2022-12-07T05:50:48;101087.97;;;9.11;66.47
12213;BME280;6169;44.158;22.788;2022-12-07T05:55:52;101086.06;;;9.24;65.55
12213;BME280;6169;44.158;22.788;2022-12-07T06:00:54;101074.84;;;9.28;66.25
12213;BME280;6169;44.158;22.788;2022-12-07T06:05:58;101086.94;;;8.92;67.40
12213;BME280;6169;44.158;22.788;2022-12-07T06:11:00;101076.69;;;9.34;65.35
12213;BME280;6169;44.158;22.788;2022-12-07T06:16:19;101081.97;;;8.82;67.44
12213;BME280;6169;44.158;22.788;2022-12-07T06:21:23;101087.34;;;9.02;67.09
12213;BME280;6169;44.158;22.788;2022-12-07T06:26:26;101080.28;;;8.88;67.22
12213;BME280;6169;44.158;22.788;2022-12-07T06:31:28;101099.84;;;9.03;67.04
12213;BME280;6169;44.158;22.788;2022-12-07T06:36:32;101095.88;;;9.26;65.86
12213;BME280;6169;44.158;22.788;2022-12-07T06:41:35;101101.28;;;9.39;66.17
12213;BME280;6169;44.158;22.788;2022-12-07T06:46:37;101098.16;;;9.22;65.18
12213;BME280;6169;44.158;22.788;2022-12-07T06:51:41;101101.09;;;9.00;65.01
12213;BME280;6169;44.158;22.788;2022-12-07T06:56:44;101100.06;;;8.48;67.75
12213;BME280;6169;44.158;22.788;2022-12-07T07:01:46;101100.06;;;8.55;68.13
12213;BME280;6169;44.158;22.788;2022-12-07T07:06:49;101099.03;;;8.89;67.25
12213;BME280;6169;44.158;22.788;2022-12-07T07:11:51;101085.69;;;8.94;66.20
12213;BME280;6169;44.158;22.788;2022-12-07T07:16:53;101092.16;;;8.73;67.79
12213;BME280;6169;44.158;22.788;2022-12-07T07:21:57;101087.78;;;8.86;68.21
12213;BME280;6169;44.158;22.788;2022-12-07T07:26:59;101085.22;;;9.17;68.34
12213;BME280;6169;44.158;22.788;2022-12-07T07:32:01;101071.91;;;9.36;66.93
12213;BME280;6169;44.158;22.788;2022-12-07T07:37:05;101076.31;;;9.04;67.58
12213;BME280;6169;44.158;22.788;2022-12-07T07:42:07;101098.56;;;9.39;66.21
12213;BME280;6169;44.158;22.788;2022-12-07T07:47:09;101097.31;;;9.41;65.80
12213;BME280;6169;44.158;22.788;2022-12-07T07:52:13;101100.41;;;9.52;65.01
12213;BME280;6169;44.158;22.788;2022-12-07T07:57:16;101102.09;;;9.39;66.49
12213;BME280;6169;44.158;22.788;2022-12-07T08:02:20;101097.94;;;9.43;66.31
12213;BME280;6169;44.158;22.788;2022-12-07T08:07:24;101097.94;;;9.17;67.22
12213;BME280;6169;44.158;22.788;2022-12-07T08:12:26;101101.03;;;9.47;66.27
12213;BME280;6169;44.158;22.788;2022-12-07T08:17:28;101089.75;;;9.63;66.73
12213;BME280;6169;44.158;22.788;2022-12-07T08:22:31;101057.28;;;9.43;67.03
12213;BME280;6169;44.158;22.788;2022-12-07T08:27:34;101092.03;;;9.60;65.45
12213;BME280;6169;44.158;22.788;2022-12-07T08:32:36;101089.22;;;9.86;66.09
12213;BME280;6169;44.158;22.788;2022-12-07T08:37:40;101082.66;;;10.01;65.60
12213;BME280;6169;44.158;22.788;2022-12-07T08:42:42;100864.25;;;8.58;65.42
12213;BME280;6169;44.158;22.788;2022-12-07T08:47:48;101086.31;;;10.20;64.17
12213;BME280;6169;44.158;22.788;2022-12-07T08:52:56;101089.34;;;10.37;64.91
12213;BME280;6169;44.158;22.788;2022-12-07T08:57:59;101032.84;;;9.95;64.49
12213;BME280;6169;44.158;22.788;2022-12-07T09:03:02;101067.47;;;10.31;64.02
12213;BME280;6169;44.158;22.788;2022-12-07T09:08:06;101049.03;;;10.40;63.47
12213;BME280;6169;44.158;22.788;2022-12-07T09:13:09;101056.03;;;10.23;63.72
12213;BME280;6169;44.158;22.788;2022-12-07T09:18:11;101052.25;;;10.30;63.52
12213;BME280;6169;44.158;22.788;2022-12-07T09:23:14;101037.16;;;10.34;62.48
12213;BME280;6169;44.158;22.788;2022-12-07T09:28:16;101047.78;;;10.68;61.74
12213;BME280;6169;44.158;22.788;2022-12-07T09:33:19;101036.06;;;10.42;63.08
12213;BME280;6169;44.158;22.788;2022-12-07T09:38:22;101037.94;;;10.73;62.79
12213;BME280;6169;44.158;22.788;2022-12-07T09:43:25;101030.28;;;10.64;62.45
12213;BME280;6169;44.158;22.788;2022-12-07T09:48:31;101021.81;;;10.97;61.36
12213;BME280;6169;44.158;22.788;2022-12-07T09:53:37;101011.38;;;10.50;62.77
12213;BME280;6169;44.158;22.788;2022-12-07T09:58:40;101001.97;;;10.28;62.09
12213;BME280;6169;44.158;22.788;2022-12-07T10:03:45;100991.47;;;11.00;62.08
12213;BME280;6169;44.158;22.788;2022-12-07T10:08:52;100993.88;;;10.71;60.67
12213;BME280;6169;44.158;22.788;2022-12-07T10:13:54;100979.09;;;10.42;62.60
12213;BME280;6169;44.158;22.788;2022-12-07T10:18:56;100976.06;;;10.57;62.03
12213;BME280;6169;44.158;22.788;2022-12-07T10:24:01;100960.38;;;10.77;61.58
12213;BME280;6169;44.158;22.788;2022-12-07T10:29:15;100985.25;;;10.56;61.59
12213;BME280;6169;44.158;22.788;2022-12-07T10:34:22;100972.50;;;10.31;63.29
12213;BME280;6169;44.158;22.788;2022-12-07T10:39:27;100972.00;;;10.66;61.83
12213;BME280;6169;44.158;22.788;2022-12-07T10:44:30;100962.03;;;10.35;63.27
12213;BME280;6169;44.158;22.788;2022-12-07T10:50:08;100947.78;;;10.83;63.17
12213;BME280;6169;44.158;22.788;2022-12-07T10:55:22;100960.53;;;10.39;62.57
12213;BME280;6169;44.158;22.788;2022-12-07T11:00:26;100830.09;;;9.72;61.96
12213;BME280;6169;44.158;22.788;2022-12-07T11:05:39;100962.13;;;10.72;62.19
12213;BME280;6169;44.158;22.788;2022-12-07T11:10:51;100961.00;;;10.11;63.39
12213;BME280;6169;44.158;22.788;2022-12-07T11:21:27;100934.50;;;10.75;62.10
12213;BME280;6169;44.158;22.788;2022-12-07T11:26:45;100927.81;;;10.34;62.87
12213;BME280;6169;44.158;22.788;2022-12-07T11:31:58;100941.59;;;10.32;63.76
12213;BME280;6169;44.158;22.788;2022-12-07T11:37:11;100944.31;;;10.32;63.87
12213;BME280;6169;44.158;22.788;2022-12-07T11:42:21;100943.28;;;10.08;63.19
12213;BME280;6169;44.158;22.788;2022-12-07T11:47:29;100939.13;;;10.49;63.06
12213;BME280;6169;44.158;22.788;2022-12-07T11:52:40;100928.72;;;10.46;61.72
12213;BME280;6169;44.158;22.788;2022-12-07T11:57:51;100944.41;;;10.44;60.76
12213;BME280;6169;44.158;22.788;2022-12-07T12:02:59;100926.91;;;10.65;61.24
12213;BME280;6169;44.158;22.788;2022-12-07T12:08:12;100927.56;;;10.61;59.88
12213;BME280;6169;44.158;22.788;2022-12-07T12:19:18;100924.84;;;10.61;61.03
12213;BME280;6169;44.158;22.788;2022-12-07T12:24:27;100921.19;;;10.48;60.67
12213;BME280;6169;44.158;22.788;2022-12-07T12:29:34;100919.75;;;10.71;59.44
12213;BME280;6169;44.158;22.788;2022-12-07T12:34:58;100916.06;;;10.40;60.80
12213;BME280;6169;44.158;22.788;2022-12-07T12:40:39;100928.72;;;10.46;61.00
12213;BME280;6169;44.158;22.788;2022-12-07T12:45:42;100929.38;;;10.67;60.64
12213;BME280;6169;44.158;22.788;2022-12-07T12:50:45;100928.47;;;10.54;61.27
12213;BME280;6169;44.158;22.788;2022-12-07T12:56:14;100920.28;;;10.36;62.05
12213;BME280;6169;44.158;22.788;2022-12-07T13:01:41;100919.44;;;10.61;62.04
12213;BME280;6169;44.158;22.788;2022-12-07T13:06:46;100913.00;;;10.55;61.86
12213;BME280;6169;44.158;22.788;2022-12-07T13:11:50;100899.94;;;10.45;63.45
12213;BME280;6169;44.158;22.788;2022-12-07T13:16:58;100877.16;;;10.46;61.65
12213;BME280;6169;44.158;22.788;2022-12-07T13:22:01;100892.13;;;10.55;62.22
12213;BME280;6169;44.158;22.788;2022-12-07T13:27:07;100887.91;;;10.60;62.56
12213;BME280;6169;44.158;22.788;2022-12-07T13:32:21;100910.25;;;10.62;61.99
12213;BME280;6169;44.158;22.788;2022-12-07T13:37:28;100916.84;;;10.47;62.95
12213;BME280;6169;44.158;22.788;2022-12-07T13:42:32;100902.16;;;10.55;63.59
12213;BME280;6169;44.158;22.788;2022-12-07T13:47:36;100897.25;;;10.64;63.00
12213;BME280;6169;44.158;22.788;2022-12-07T13:52:45;100900.59;;;10.66;64.14
12213;BME280;6169;44.158;22.788;2022-12-07T13:57:51;100890.06;;;10.51;63.77
12213;BME280;6169;44.158;22.788;2022-12-07T14:02:56;100900.59;;;10.66;63.29
12213;BME280;6169;44.158;22.788;2022-12-07T14:08:03;100892.06;;;10.62;62.78
12213;BME280;6169;44.158;22.788;2022-12-07T14:13:26;100896.44;;;10.63;62.56
12213;BME280;6169;44.158;22.788;2022-12-07T14:18:36;100902.16;;;10.92;60.53
12213;BME280;6169;44.158;22.788;2022-12-07T14:23:40;100901.81;;;10.70;63.22
12213;BME280;6169;44.158;22.788;2022-12-07T14:28:43;100905.41;;;10.64;62.84
12213;BME280;6169;44.158;22.788;2022-12-07T14:33:45;100914.94;;;10.73;62.98
12213;BME280;6169;44.158;22.788;2022-12-07T14:38:49;100913.69;;;10.69;62.46
12213;BME280;6169;44.158;22.788;2022-12-07T14:43:53;100914.34;;;10.46;63.30
12213;BME280;6169;44.158;22.788;2022-12-07T14:48:56;100888.75;;;10.60;64.25
12213;BME280;6169;44.158;22.788;2022-12-07T14:53:59;100903.44;;;10.52;64.44
12213;BME280;6169;44.158;22.788;2022-12-07T14:59:01;100910.34;;;10.48;64.48
12213;BME280;6169;44.158;22.788;2022-12-07T15:04:04;100901.13;;;10.49;65.17
12213;BME280;6169;44.158;22.788;2022-12-07T15:09:09;100914.97;;;10.66;64.76
12213;BME280;6169;44.158;22.788;2022-12-07T15:14:11;100922.84;;;10.31;65.17
12213;BME280;6169;44.158;22.788;2022-12-07T15:19:15;100933.41;;;10.39;64.39
12213;BME280;6169;44.158;22.788;2022-12-07T15:24:19;100918.94;;;10.45;64.01
12213;BME280;6169;44.158;22.788;2022-12-07T15:29:22;100920.88;;;10.38;64.33
12213;BME280;6169;44.158;22.788;2022-12-07T15:34:24;100918.16;;;10.38;64.54
12213;BME280;6169;44.158;22.788;2022-12-07T15:39:28;100932.78;;;10.37;65.58
12213;BME280;6169;44.158;22.788;2022-12-07T15:44:30;100951.16;;;10.10;66.27
12213;BME280;6169;44.158;22.788;2022-12-07T15:49:49;100925.44;;;10.19;65.99
12213;BME280;6169;44.158;22.788;2022-12-07T15:54:53;100929.16;;;10.25;65.04
12213;BME280;6169;44.158;22.788;2022-12-07T15:59:55;100927.19;;;10.32;64.99
12213;BME280;6169;44.158;22.788;2022-12-07T16:04:58;100925.47;;;10.38;64.71
12213;BME280;6169;44.158;22.788;2022-12-07T16:10:01;100936.84;;;10.28;64.73
12213;BME280;6169;44.158;22.788;2022-12-07T16:15:04;100946.63;;;10.04;66.27
12213;BME280;6169;44.158;22.788;2022-12-07T16:20:08;100932.19;;;10.10;66.90
12213;BME280;6169;44.158;22.788;2022-12-07T16:25:12;100937.84;;;10.08;67.46
12213;BME280;6169;44.158;22.788;2022-12-07T16:30:14;100929.34;;;10.48;66.36
12213;BME280;6169;44.158;22.788;2022-12-07T16:35:17;100933.00;;;10.35;65.79
12213;BME280;6169;44.158;22.788;2022-12-07T16:40:21;100949.34;;;10.29;66.20
12213;BME280;6169;44.158;22.788;2022-12-07T16:45:23;100961.72;;;10.25;64.61
12213;BME280;6169;44.158;22.788;2022-12-07T16:50:26;100964.50;;;9.86;66.88
12213;BME280;6169;44.158;22.788;2022-12-07T16:55:29;100979.97;;;9.79;67.56
12213;BME280;6169;44.158;22.788;2022-12-07T17:00:31;100969.06;;;9.54;68.53
12213;BME280;6169;44.158;22.788;2022-12-07T17:05:37;100978.78;;;9.30;70.62
12213;BME280;6169;44.158;22.788;2022-12-07T17:10:43;100981.09;;;9.65;69.56
12213;BME280;6169;44.158;22.788;2022-12-07T17:15:55;100977.72;;;9.38;70.32
12213;BME280;6169;44.158;22.788;2022-12-07T17:21:02;100982.06;;;9.39;71.04
12213;BME280;6169;44.158;22.788;2022-12-07T17:26:07;100975.91;;;9.57;69.82
12213;BME280;6169;44.158;22.788;2022-12-07T17:31:12;100975.97;;;9.50;69.17
12213;BME280;6169;44.158;22.788;2022-12-07T17:36:17;100986.28;;;9.35;70.99
12213;BME280;6169;44.158;22.788;2022-12-07T17:41:22;100980.56;;;9.43;70.32
12213;BME280;6169;44.158;22.788;2022-12-07T17:46:43;100987.53;;;9.26;71.27
12213;BME280;6169;44.158;22.788;2022-12-07T17:51:46;100992.09;;;9.32;70.97
12213;BME280;6169;44.158;22.788;2022-12-07T17:57:07;101009.22;;;9.06;72.73
12213;BME280;6169;44.158;22.788;2022-12-07T18:02:09;101017.59;;;9.62;70.15
12213;BME280;6169;44.158;22.788;2022-12-07T18:07:12;101017.16;;;9.65;68.80
12213;BME280;6169;44.158;22.788;2022-12-07T18:12:15;100992.97;;;9.19;70.83
12213;BME280;6169;44.158;22.788;2022-12-07T18:17:17;101012.75;;;9.19;70.73
12213;BME280;6169;44.158;22.788;2022-12-07T18:22:20;101009.00;;;9.27;69.85
12213;BME280;6169;44.158;22.788;2022-12-07T18:27:23;101006.25;;;9.34;69.71
12213;BME280;6169;44.158;22.788;2022-12-07T18:32:25;101006.16;;;9.60;69.21
12213;BME280;6169;44.158;22.788;2022-12-07T18:37:30;101012.69;;;9.46;69.41
12213;BME280;6169;44.158;22.788;2022-12-07T18:42:34;100994.94;;;9.50;68.75
12213;BME280;6169;44.158;22.788;2022-12-07T18:47:36;100991.59;;;9.55;68.34
12213;BME280;6169;44.158;22.788;2022-12-07T18:52:38;100999.13;;;9.46;69.36
12213;BME280;6169;44.158;22.788;2022-12-07T18:57:42;101006.53;;;9.64;69.02
12213;BME280;6169;44.158;22.788;2022-12-07T19:02:44;101010.03;;;9.71;68.47
12213;BME280;6169;44.158;22.788;2022-12-07T19:07:46;101015.47;;;9.71;67.76
12213;BME280;6169;44.158;22.788;2022-12-07T19:12:51;101010.84;;;9.78;68.38
12213;BME280;6169;44.158;22.788;2022-12-07T19:17:53;101009.69;;;9.54;68.93
12213;BME280;6169;44.158;22.788;2022-12-07T19:22:56;101007.56;;;9.70;69.22
12213;BME280;6169;44.158;22.788;2022-12-07T19:27:59;101015.09;;;9.61;69.72
12213;BME280;6169;44.158;22.788;2022-12-07T19:33:01;101004.69;;;9.58;69.83
12213;BME280;6169;44.158;22.788;2022-12-07T19:38:04;101008.63;;;9.68;69.27
12213;BME280;6169;44.158;22.788;2022-12-07T19:43:07;101016.84;;;9.42;69.87
12213;BME280;6169;44.158;22.788;2022-12-07T19:48:10;101020.19;;;9.37;70.04
12213;BME280;6169;44.158;22.788;2022-12-07T19:53:12;101019.59;;;9.35;71.35
12213;BME280;6169;44.158;22.788;2022-12-07T19:58:15;101021.88;;;9.32;69.95
12213;BME280;6169;44.158;22.788;2022-12-07T20:03:17;101027.72;;;9.22;70.82
12213;BME280;6169;44.158;22.788;2022-12-07T20:08:20;101025.22;;;9.20;70.81
12213;BME280;6169;44.158;22.788;2022-12-07T20:13:23;101022.06;;;9.43;70.20
12213;BME280;6169;44.158;22.788;2022-12-07T20:18:33;101029.41;;;9.30;69.72
12213;BME280;6169;44.158;22.788;2022-12-07T20:23:35;101025.66;;;9.31;70.47
12213;BME280;6169;44.158;22.788;2022-12-07T20:28:40;101031.25;;;9.22;71.01
12213;BME280;6169;44.158;22.788;2022-12-07T20:33:45;101029.44;;;9.10;71.59
12213;BME280;6169;44.158;22.788;2022-12-07T20:38:47;101015.44;;;9.19;71.04
12213;BME280;6169;44.158;22.788;2022-12-07T20:43:51;101018.38;;;9.18;71.19
12213;BME280;6169;44.158;22.788;2022-12-07T20:48:53;101029.78;;;9.47;71.40
12213;BME280;6169;44.158;22.788;2022-12-07T20:53:56;101026.03;;;9.34;71.49
12213;BME280;6169;44.158;22.788;2022-12-07T20:59:01;101036.41;;;9.51;70.38
12213;BME280;6169;44.158;22.788;2022-12-07T21:04:04;101025.94;;;9.61;69.63
12213;BME280;6169;44.158;22.788;2022-12-07T21:09:06;101024.81;;;9.30;70.66
12213;BME280;6169;44.158;22.788;2022-12-07T21:14:10;101019.59;;;9.35;70.22
12213;BME280;6169;44.158;22.788;2022-12-07T21:19:12;101025.13;;;9.60;69.60
12213;BME280;6169;44.158;22.788;2022-12-07T21:24:14;101032.47;;;9.40;70.03
12213;BME280;6169;44.158;22.788;2022-12-07T21:29:18;101038.53;;;9.42;69.85
12213;BME280;6169;44.158;22.788;2022-12-07T21:34:20;101043.16;;;9.35;70.41
12213;BME280;6169;44.158;22.788;2022-12-07T21:39:22;101042.41;;;9.59;69.65
12213;BME280;6169;44.158;22.788;2022-12-07T21:44:26;101046.41;;;9.50;69.85
12213;BME280;6169;44.158;22.788;2022-12-07T21:49:28;101046.03;;;9.47;68.81
12213;BME280;6169;44.158;22.788;2022-12-07T21:54:30;101040.38;;;9.48;70.34
12213;BME280;6169;44.158;22.788;2022-12-07T21:59:34;101038.50;;;9.49;70.20
12213;BME280;6169;44.158;22.788;2022-12-07T22:04:36;101028.94;;;9.39;69.34
12213;BME280;6169;44.158;22.788;2022-12-07T22:09:38;101029.19;;;9.38;70.14
12213;BME280;6169;44.158;22.788;2022-12-07T22:14:42;101033.97;;;9.36;70.36
12213;BME280;6169;44.158;22.788;2022-12-07T22:20:01;101036.78;;;9.61;69.80
12213;BME280;6169;44.158;22.788;2022-12-07T22:25:05;101031.00;;;9.51;70.87
12213;BME280;6169;44.158;22.788;2022-12-07T22:30:10;101021.75;;;9.65;69.03
12213;BME280;6169;44.158;22.788;2022-12-07T22:35:13;101026.03;;;9.79;68.90
12213;BME280;6169;44.158;22.788;2022-12-07T22:40:15;101026.66;;;9.81;69.16
12213;BME280;6169;44.158;22.788;2022-12-07T22:45:18;101028.50;;;9.49;68.42
12213;BME280;6169;44.158;22.788;2022-12-07T22:50:21;101030.19;;;9.43;70.08
12213;BME280;6169;44.158;22.788;2022-12-07T22:55:23;101022.00;;;9.57;69.81
12213;BME280;6169;44.158;22.788;2022-12-07T23:00:27;101030.16;;;9.50;70.53
12213;BME280;6169;44.158;22.788;2022-12-07T23:05:29;101032.91;;;9.43;70.06
12213;BME280;6169;44.158;22.788;2022-12-07T23:10:31;101031.03;;;9.44;70.52
12213;BME280;6169;44.158;22.788;2022-12-07T23:15:36;101029.72;;;9.53;69.01
12213;BME280;6169;44.158;22.788;2022-12-07T23:20:39;101035.63;;;9.43;69.69
12213;BME280;6169;44.158;22.788;2022-12-07T23:25:41;101038.69;;;9.54;69.48
12213;BME280;6169;44.158;22.788;2022-12-07T23:30:45;101031.56;;;9.59;70.32
12213;BME280;6169;44.158;22.788;2022-12-07T23:35:47;101032.25;;;9.55;69.18
12213;BME280;6169;44.158;22.788;2022-12-07T23:40:49;101033.94;;;9.49;69.63
12213;BME280;6169;44.158;22.788;2022-12-07T23:45:53;101051.06;;;9.23;71.40
12213;BME280;6169;44.158;22.788;2022-12-07T23:50:56;101052.38;;;9.07;71.86
12213;BME280;6169;44.158;22.788;2022-12-07T23:55:59;101058.19;;;8.97;71.64
